^^
Grace C. Lehan Memorial Weather Station Historical Data
Daily Summary for February 16, 2022 Units:  Both    English   Metric
Daily Weekly Monthly Yearly
  High: Low: Average:
Temperature: 47.2 °F /  8.4 °C 34.3 °F /  1.3 °C 39.7 °F /  4.3 °C
Dew Point: 43.9 °F /  6.6 °C 32.8 °F /  0.4 °C 37.1 °F /  2.8 °C
Humidity: 97% 76% 91%
Wind Speed: 12.1mph /  19.5km/h - 2.1mph /  3.4km/h
Wind Gust: 23mph /  37km/h - -
Wind- - WNW
Pressure: 30.20 in /  1022.6 hPa 29.75 in /  1007.3 hPa -
Precipitation: 0.71 in /  18.03 mm    
 
 
Tabular Data for February 16, 2022
Time Temperature Dew Point Pressure Wind Wind Speed Wind Gust Humidity Rainfall Rate (Hourly) solar
00:04 34.4 °F /  1.3 °C 32.9 °F /  0.5 °C 30.20in /  1022.6hPa NNE 0.4mph /  0.6km/h 6mph /  9.7km/h 94% 0.13in /  3.3mm 0 W/m2
00:09 34.4 °F /  1.3 °C 32.9 °F /  0.5 °C 30.20in /  1022.6hPa NW 0.6mph /  1km/h 4mph /  6.4km/h 94% 0.02in /  0.51mm 0 W/m2
00:14 34.4 °F /  1.3 °C 32.9 °F /  0.5 °C 30.19in /  1022.2hPa NNW 0.3mph /  0.5km/h 4mph /  6.4km/h 94% 0.02in /  0.51mm 0 W/m2
00:19 34.4 °F /  1.3 °C 32.9 °F /  0.5 °C 30.19in /  1022.2hPa NE 0.4mph /  0.6km/h 4mph /  6.4km/h 94% 0.02in /  0.51mm 0 W/m2
00:24 34.4 °F /  1.3 °C 32.9 °F /  0.5 °C 30.18in /  1021.9hPa NE 0.3mph /  0.5km/h 4mph /  6.4km/h 94% 0.03in /  0.76mm 0 W/m2
00:29 34.4 °F /  1.3 °C 32.9 °F /  0.5 °C 30.18in /  1021.9hPa NNE 0.5mph /  0.8km/h 4mph /  6.4km/h 94% 0.03in /  0.76mm 0 W/m2
00:34 34.4 °F /  1.3 °C 32.9 °F /  0.5 °C 30.18in /  1021.9hPa NNE 0.3mph /  0.5km/h 4mph /  6.4km/h 94% 0.04in /  1.02mm 0 W/m2
00:39 34.4 °F /  1.3 °C 32.9 °F /  0.5 °C 30.17in /  1021.6hPa North 1.9mph /  3.1km/h 6mph /  9.7km/h 94% 0.04in /  1.02mm 0 W/m2
00:44 34.4 °F /  1.3 °C 32.9 °F /  0.5 °C 30.17in /  1021.6hPa NNW 3.2mph /  5.1km/h 11mph /  17.7km/h 94% 0.05in /  1.27mm 0 W/m2
00:49 34.4 °F /  1.3 °C 32.9 °F /  0.5 °C 30.17in /  1021.6hPa NNW 2.8mph /  4.5km/h 11mph /  17.7km/h 94% 0.05in /  1.27mm 0 W/m2
00:54 34.4 °F /  1.3 °C 32.9 °F /  0.5 °C 30.17in /  1021.6hPa NNW 0.9mph /  1.4km/h 11mph /  17.7km/h 94% 0.06in /  1.52mm 0 W/m2
00:59 34.4 °F /  1.3 °C 32.9 °F /  0.5 °C 30.17in /  1021.6hPa NNW 1.1mph /  1.8km/h 11mph /  17.7km/h 94% 0.07in /  1.78mm 0 W/m2
01:04 34.4 °F /  1.3 °C 32.9 °F /  0.5 °C 30.16in /  1021.2hPa NNW 3.2mph /  5.1km/h 12mph /  19.3km/h 94% 0.07in /  1.78mm 0 W/m2
01:09 34.4 °F /  1.3 °C 32.9 °F /  0.5 °C 30.16in /  1021.2hPa North 1.7mph /  2.7km/h 12mph /  19.3km/h 94% 0.09in /  2.29mm 0 W/m2
01:14 34.4 °F /  1.3 °C 32.9 °F /  0.5 °C 30.15in /  1020.9hPa North 0.8mph /  1.3km/h 12mph /  19.3km/h 94% 0.10in /  2.54mm 0 W/m2
01:19 34.4 °F /  1.3 °C 32.9 °F /  0.5 °C 30.15in /  1020.9hPa NNW 0.7mph /  1.1km/h 12mph /  19.3km/h 94% 0.11in /  2.79mm 0 W/m2
01:24 34.4 °F /  1.3 °C 32.9 °F /  0.5 °C 30.15in /  1020.9hPa North 1mph /  1.6km/h 12mph /  19.3km/h 94% 0.13in /  3.3mm 0 W/m2
01:29 34.4 °F /  1.3 °C 32.9 °F /  0.5 °C 30.15in /  1020.9hPa North 0.3mph /  0.5km/h 12mph /  19.3km/h 94% 0.15in /  3.81mm 0 W/m2
01:34 34.4 °F /  1.3 °C 32.9 °F /  0.5 °C 30.15in /  1020.9hPa NE 1.8mph /  2.9km/h 12mph /  19.3km/h 94% 0.16in /  4.06mm 0 W/m2
01:39 34.3 °F /  1.3 °C 32.8 °F /  0.4 °C 30.14in /  1020.5hPa NE 0.4mph /  0.6km/h 6mph /  9.7km/h 94% 0.17in /  4.32mm 0 W/m2
01:44 34.3 °F /  1.3 °C 32.8 °F /  0.4 °C 30.13in /  1020.2hPa NE 1.5mph /  2.4km/h 6mph /  9.7km/h 94% 0.18in /  4.57mm 0 W/m2
01:49 34.3 °F /  1.3 °C 32.8 °F /  0.4 °C 30.12in /  1019.9hPa NE 1.2mph /  1.9km/h 6mph /  9.7km/h 94% 0.19in /  4.83mm 0 W/m2
01:54 34.3 °F /  1.3 °C 32.8 °F /  0.4 °C 30.11in /  1019.5hPa NE 2.6mph /  4.2km/h 6mph /  9.7km/h 94% 0.19in /  4.83mm 0 W/m2
01:59 34.3 °F /  1.3 °C 32.8 °F /  0.4 °C 30.11in /  1019.5hPa NE 1mph /  1.6km/h 6mph /  9.7km/h 94.3% 0.20in /  5.08mm 0 W/m2
02:04 34.3 °F /  1.3 °C 33.1 °F /  0.6 °C 30.10in /  1019.2hPa NE 1.5mph /  2.4km/h 6mph /  9.7km/h 95% 0.20in /  5.08mm 0 W/m2
02:09 34.4 °F /  1.3 °C 33.1 °F /  0.6 °C 30.09in /  1018.8hPa NE 2.3mph /  3.7km/h 5mph /  8km/h 95% 0.18in /  4.57mm 0 W/m2
02:14 34.4 °F /  1.3 °C 33.1 °F /  0.6 °C 30.10in /  1019.2hPa NNE 0.3mph /  0.5km/h 5mph /  8km/h 95% 0.19in /  4.83mm 0 W/m2
02:19 34.4 °F /  1.3 °C 33.1 °F /  0.6 °C 30.10in /  1019.2hPa NNE 0.3mph /  0.5km/h 5mph /  8km/h 95% 0.20in /  5.08mm 0 W/m2
02:24 34.5 °F /  1.4 °C 33.2 °F /  0.7 °C 30.09in /  1018.8hPa NE 0.1mph /  0.2km/h 5mph /  8km/h 95% 0.21in /  5.33mm 0 W/m2
02:29 34.5 °F /  1.4 °C 33.3 °F /  0.7 °C 30.08in /  1018.5hPa NE 0.1mph /  0.2km/h 5mph /  8km/h 95% 0.21in /  5.33mm 0 W/m2
02:34 34.6 °F /  1.4 °C 33.3 °F /  0.7 °C 30.08in /  1018.5hPa NNE 1.4mph /  2.3km/h 5mph /  8km/h 95% 0.21in /  5.33mm 0 W/m2
02:39 34.6 °F /  1.4 °C 33.3 °F /  0.7 °C 30.08in /  1018.5hPa North 1.4mph /  2.3km/h 5mph /  8km/h 95% 0.12in /  3.05mm 0 W/m2
02:44 34.6 °F /  1.4 °C 33.3 °F /  0.7 °C 30.07in /  1018.2hPa North 0.6mph /  1km/h 5mph /  8km/h 95% 0.13in /  3.3mm 0 W/m2
02:49 34.7 °F /  1.5 °C 33.4 °F /  0.8 °C 30.06in /  1017.8hPa North 1.3mph /  2.1km/h 5mph /  8km/h 95% 0.14in /  3.56mm 0 W/m2
02:54 34.7 °F /  1.5 °C 33.4 °F /  0.8 °C 30.05in /  1017.5hPa North 1.3mph /  2.1km/h 5mph /  8km/h 95% 0.15in /  3.81mm 0 W/m2
02:59 34.7 °F /  1.5 °C 33.4 °F /  0.8 °C 30.05in /  1017.5hPa NNW 1.4mph /  2.3km/h 7mph /  11.3km/h 95% 0.16in /  4.06mm 0 W/m2
03:04 34.8 °F /  1.6 °C 33.5 °F /  0.8 °C 30.04in /  1017.2hPa NNW 0.8mph /  1.3km/h 7mph /  11.3km/h 95% 0.16in /  4.06mm 0 W/m2
03:09 34.8 °F /  1.6 °C 33.5 °F /  0.8 °C 30.04in /  1017.2hPa NW 2.4mph /  3.9km/h 9mph /  14.5km/h 95% 0.12in /  3.05mm 0 W/m2
03:14 34.8 °F /  1.6 °C 33.5 °F /  0.8 °C 30.04in /  1017.2hPa NNW 1.9mph /  3.1km/h 9mph /  14.5km/h 95% 0.13in /  3.3mm 0 W/m2
03:19 34.8 °F /  1.6 °C 33.5 °F /  0.8 °C 30.04in /  1017.2hPa North 1.2mph /  1.9km/h 9mph /  14.5km/h 95% 0.14in /  3.56mm 0 W/m2
03:24 34.8 °F /  1.6 °C 33.5 °F /  0.8 °C 30.03in /  1016.8hPa NNW 1.5mph /  2.4km/h 9mph /  14.5km/h 95% 0.15in /  3.81mm 0 W/m2
03:29 34.9 °F /  1.6 °C 33.6 °F /  0.9 °C 30.02in /  1016.5hPa NNW 1mph /  1.6km/h 9mph /  14.5km/h 95% 0.17in /  4.32mm 0 W/m2
03:34 34.8 °F /  1.6 °C 33.5 °F /  0.8 °C 30.01in /  1016.1hPa North 2.3mph /  3.7km/h 9mph /  14.5km/h 95% 0.17in /  4.32mm 0 W/m2
03:39 34.8 °F /  1.6 °C 33.6 °F /  0.9 °C 30.01in /  1016.1hPa NNW 1.4mph /  2.3km/h 7mph /  11.3km/h 95% 0.13in /  3.3mm 0 W/m2
03:44 34.9 °F /  1.6 °C 33.6 °F /  0.9 °C 30.01in /  1016.1hPa North 1.6mph /  2.6km/h 7mph /  11.3km/h 95% 0.14in /  3.56mm 0 W/m2
03:49 34.9 °F /  1.6 °C 33.6 °F /  0.9 °C 30.00in /  1015.8hPa NNW 1mph /  1.6km/h 7mph /  11.3km/h 95% 0.14in /  3.56mm 0 W/m2
03:54 34.9 °F /  1.6 °C 33.6 °F /  0.9 °C 30.00in /  1015.8hPa NNW 1.8mph /  2.9km/h 7mph /  11.3km/h 95% 0.14in /  3.56mm 0 W/m2
03:58 35 °F /  1.7 °C 33.7 °F /  0.9 °C 29.99in /  1015.5hPa NNW 2.5mph /  4km/h 7mph /  11.3km/h 95% 0.14in /  3.56mm 0 W/m2
04:04 35 °F /  1.7 °C 33.7 °F /  0.9 °C 29.98in /  1015.1hPa NNW 1.6mph /  2.6km/h 3mph /  4.8km/h 95% 0.14in /  3.56mm 0 W/m2
04:09 35.1 °F /  1.7 °C 33.8 °F /  1 °C 29.98in /  1015.1hPa NNW 2mph /  3.2km/h 6mph /  9.7km/h 95% 0.15in /  3.81mm 0 W/m2
04:14 35.1 °F /  1.7 °C 33.8 °F /  1 °C 29.98in /  1015.1hPa NNW 2.6mph /  4.2km/h 6mph /  9.7km/h 95% 0.15in /  3.81mm 0 W/m2
04:19 35.2 °F /  1.8 °C 33.9 °F /  1.1 °C 29.98in /  1015.1hPa NNW 1.7mph /  2.7km/h 7mph /  11.3km/h 95% 0.15in /  3.81mm 0 W/m2
04:24 35.2 °F /  1.8 °C 33.9 °F /  1.1 °C 29.98in /  1015.1hPa NNW 2.7mph /  4.3km/h 7mph /  11.3km/h 95% 0.15in /  3.81mm 0 W/m2
04:29 35.2 °F /  1.8 °C 34 °F /  1.1 °C 29.97in /  1014.8hPa NNW 1.4mph /  2.3km/h 8mph /  12.9km/h 95% 0.16in /  4.06mm 0 W/m2
04:34 35.3 °F /  1.8 °C 34 °F /  1.1 °C 29.96in /  1014.4hPa NNW 2.3mph /  3.7km/h 9mph /  14.5km/h 95% 0.16in /  4.06mm 0 W/m2
04:39 35.3 °F /  1.8 °C 34 °F /  1.1 °C 29.96in /  1014.4hPa NNW 2.9mph /  4.7km/h 9mph /  14.5km/h 95% 0.04in /  1.02mm 0 W/m2
04:44 35.3 °F /  1.8 °C 34 °F /  1.1 °C 29.95in /  1014.1hPa NNW 2.3mph /  3.7km/h 9mph /  14.5km/h 95% 0.04in /  1.02mm 0 W/m2
04:49 35.4 °F /  1.9 °C 34.1 °F /  1.2 °C 29.96in /  1014.4hPa NNW 1.8mph /  2.9km/h 9mph /  14.5km/h 95% 0.05in /  1.27mm 0 W/m2
04:54 35.4 °F /  1.9 °C 34.1 °F /  1.2 °C 29.96in /  1014.4hPa NNW 2.6mph /  4.2km/h 9mph /  14.5km/h 95% 0.05in /  1.27mm 0 W/m2
04:59 35.5 °F /  1.9 °C 34.2 °F /  1.2 °C 29.96in /  1014.4hPa NNW 2.6mph /  4.2km/h 9mph /  14.5km/h 95% 0.06in /  1.52mm 0 W/m2
05:04 35.6 °F /  2 °C 34.3 °F /  1.3 °C 29.95in /  1014.1hPa NNW 2.9mph /  4.7km/h 9mph /  14.5km/h 95% 0.06in /  1.52mm 0 W/m2
05:09 35.6 °F /  2 °C 34.3 °F /  1.3 °C 29.95in /  1014.1hPa NW 2.7mph /  4.3km/h 11mph /  17.7km/h 95% 0.03in /  0.76mm 0 W/m2
05:14 35.7 °F /  2.1 °C 34.4 °F /  1.3 °C 29.94in /  1013.8hPa NNW 2.5mph /  4km/h 11mph /  17.7km/h 95% 0.05in /  1.27mm 0 W/m2
05:19 35.7 °F /  2.1 °C 34.4 °F /  1.3 °C 29.94in /  1013.8hPa NW 2.3mph /  3.7km/h 11mph /  17.7km/h 95% 0.06in /  1.52mm 0 W/m2
05:24 35.8 °F /  2.1 °C 34.5 °F /  1.4 °C 29.94in /  1013.8hPa NNW 3.2mph /  5.1km/h 11mph /  17.7km/h 95% 0.06in /  1.52mm 0 W/m2
05:29 35.8 °F /  2.1 °C 34.5 °F /  1.4 °C 29.93in /  1013.4hPa NNW 1.4mph /  2.3km/h 11mph /  17.7km/h 95% 0.07in /  1.78mm 0 W/m2
05:34 35.8 °F /  2.1 °C 34.5 °F /  1.4 °C 29.93in /  1013.4hPa NNW 3.1mph /  5km/h 11mph /  17.7km/h 95% 0.08in /  2.03mm 0 W/m2
05:39 35.8 °F /  2.1 °C 34.5 °F /  1.4 °C 29.93in /  1013.4hPa NNW 2.6mph /  4.2km/h 11mph /  17.7km/h 95% 0.08in /  2.03mm 0 W/m2
05:44 35.8 °F /  2.1 °C 34.5 °F /  1.4 °C 29.92in /  1013.1hPa NW 1.4mph /  2.3km/h 11mph /  17.7km/h 95% 0.09in /  2.29mm 0 W/m2
05:49 35.9 °F /  2.2 °C 34.7 °F /  1.5 °C 29.92in /  1013.1hPa NNW 2.5mph /  4km/h 11mph /  17.7km/h 95.2% 0.10in /  2.54mm 0 W/m2
05:54 35.9 °F /  2.2 °C 34.9 °F /  1.6 °C 29.91in /  1012.8hPa North 2.9mph /  4.7km/h 11mph /  17.7km/h 96% 0.10in /  2.54mm 0 W/m2
05:59 36 °F /  2.2 °C 35 °F /  1.7 °C 29.91in /  1012.8hPa NNW 3.4mph /  5.5km/h 11mph /  17.7km/h 96% 0.11in /  2.79mm 0 W/m2
06:04 36 °F /  2.2 °C 35 °F /  1.7 °C 29.91in /  1012.8hPa North 3.2mph /  5.1km/h 11mph /  17.7km/h 96% 0.11in /  2.79mm 0 W/m2
06:09 36 °F /  2.2 °C 35 °F /  1.7 °C 29.90in /  1012.4hPa NNW 3.3mph /  5.3km/h 11mph /  17.7km/h 96% 0.10in /  2.54mm 0 W/m2
06:14 36.1 °F /  2.3 °C 35.1 °F /  1.7 °C 29.90in /  1012.4hPa NNW 1.8mph /  2.9km/h 11mph /  17.7km/h 96% 0.10in /  2.54mm 0 W/m2
06:19 36.1 °F /  2.3 °C 35 °F /  1.7 °C 29.90in /  1012.4hPa NNW 3.1mph /  5km/h 11mph /  17.7km/h 95.9% 0.10in /  2.54mm 0 W/m2
06:24 36.1 °F /  2.3 °C 34.9 °F /  1.6 °C 29.89in /  1012.1hPa NW 4.3mph /  6.9km/h 14mph /  22.5km/h 95.5% 0.11in /  2.79mm 0 W/m2
06:29 36.1 °F /  2.3 °C 34.9 °F /  1.6 °C 29.89in /  1012.1hPa NNW 2.7mph /  4.3km/h 14mph /  22.5km/h 95.5% 0.11in /  2.79mm 0 W/m2
06:34 36.1 °F /  2.3 °C 34.9 °F /  1.6 °C 29.88in /  1011.7hPa NNW 2.3mph /  3.7km/h 14mph /  22.5km/h 95.4% 0.11in /  2.79mm 0 W/m2
06:39 36.2 °F /  2.3 °C 35.2 °F /  1.8 °C 29.88in /  1011.7hPa NNW 2.6mph /  4.2km/h 9mph /  14.5km/h 96% 0.07in /  1.78mm 0 W/m2
06:44 36.3 °F /  2.4 °C 35.3 °F /  1.8 °C 29.87in /  1011.4hPa NNW 2.9mph /  4.7km/h 9mph /  14.5km/h 96% 0.07in /  1.78mm 0 W/m2
06:49 36.4 °F /  2.4 °C 35.3 °F /  1.8 °C 29.87in /  1011.4hPa NNW 1.4mph /  2.3km/h 9mph /  14.5km/h 96% 0.07in /  1.78mm 0 W/m2
06:54 36.4 °F /  2.4 °C 35.4 °F /  1.9 °C 29.86in /  1011.1hPa NNW 2.9mph /  4.7km/h 11mph /  17.7km/h 96% 0.08in /  2.03mm 0 W/m2
06:59 36.5 °F /  2.5 °C 35.5 °F /  1.9 °C 29.86in /  1011.1hPa NNW 3.6mph /  5.8km/h 11mph /  17.7km/h 96% 0.08in /  2.03mm 5 W/m2
07:04 36.6 °F /  2.6 °C 35.6 °F /  2 °C 29.86in /  1011.1hPa NNW 3.9mph /  6.3km/h 14mph /  22.5km/h 96% 0.08in /  2.03mm 5 W/m2
07:09 36.6 °F /  2.6 °C 35.6 °F /  2 °C 29.85in /  1010.7hPa NNW 2.8mph /  4.5km/h 14mph /  22.5km/h 96% 0.05in /  1.27mm 7 W/m2
07:14 36.7 °F /  2.6 °C 35.7 °F /  2.1 °C 29.85in /  1010.7hPa NNW 2.8mph /  4.5km/h 14mph /  22.5km/h 96% 0.05in /  1.27mm 11 W/m2
07:19 36.7 °F /  2.6 °C 35.7 °F /  2.1 °C 29.85in /  1010.7hPa NNW 3.4mph /  5.5km/h 14mph /  22.5km/h 96% 0.05in /  1.27mm 11 W/m2
07:24 36.8 °F /  2.7 °C 35.8 °F /  2.1 °C 29.85in /  1010.7hPa NNW 2.8mph /  4.5km/h 14mph /  22.5km/h 96% 0.06in /  1.52mm 11 W/m2
07:29 36.9 °F /  2.7 °C 35.8 °F /  2.1 °C 29.84in /  1010.4hPa NNW 2.6mph /  4.2km/h 14mph /  22.5km/h 96% 0.06in /  1.52mm 12 W/m2
07:34 37 °F /  2.8 °C 35.9 °F /  2.2 °C 29.84in /  1010.4hPa NW 2.7mph /  4.3km/h 14mph /  22.5km/h 96% 0.06in /  1.52mm 14 W/m2
07:39 37 °F /  2.8 °C 36 °F /  2.2 °C 29.84in /  1010.4hPa NNW 1.8mph /  2.9km/h 9mph /  14.5km/h 96% 0.05in /  1.27mm 19 W/m2
07:44 37 °F /  2.8 °C 36 °F /  2.2 °C 29.83in /  1010hPa NNW 3.8mph /  6.1km/h 10mph /  16.1km/h 96% 0.05in /  1.27mm 25 W/m2
07:49 37.1 °F /  2.8 °C 36.1 °F /  2.3 °C 29.83in /  1010hPa NNW 3mph /  4.8km/h 11mph /  17.7km/h 96% 0.06in /  1.52mm 32 W/m2
07:54 37.2 °F /  2.9 °C 36.1 °F /  2.3 °C 29.83in /  1010hPa NNW 3.7mph /  6km/h 14mph /  22.5km/h 96% 0.06in /  1.52mm 42 W/m2
07:59 37.3 °F /  2.9 °C 36.2 °F /  2.3 °C 29.82in /  1009.7hPa North 2.5mph /  4km/h 14mph /  22.5km/h 96% 0.06in /  1.52mm 49 W/m2
08:09 37.5 °F /  3.1 °C 36.4 °F /  2.4 °C 29.81in /  1009.4hPa NNW 4mph /  6.4km/h 14mph /  22.5km/h 96% 0.07in /  1.78mm 51 W/m2
08:14 37.5 °F /  3.1 °C 36.5 °F /  2.5 °C 29.81in /  1009.4hPa North 0.8mph /  1.3km/h 14mph /  22.5km/h 96% 0.07in /  1.78mm 40 W/m2
08:19 37.6 °F /  3.1 °C 36.6 °F /  2.6 °C 29.81in /  1009.4hPa NNW 1.6mph /  2.6km/h 14mph /  22.5km/h 96% 0.07in /  1.78mm 42 W/m2
08:24 37.7 °F /  3.2 °C 36.7 °F /  2.6 °C 29.80in /  1009hPa NNW 1.5mph /  2.4km/h 14mph /  22.5km/h 96% 0.07in /  1.78mm 53 W/m2
08:29 37.8 °F /  3.2 °C 36.8 °F /  2.7 °C 29.80in /  1009hPa NNW 2.1mph /  3.4km/h 14mph /  22.5km/h 96% 0.08in /  2.03mm 53 W/m2
08:34 37.9 °F /  3.3 °C 36.9 °F /  2.7 °C 29.80in /  1009hPa NNW 2.7mph /  4.3km/h 14mph /  22.5km/h 96% 0.08in /  2.03mm 47 W/m2
08:39 38 °F /  3.3 °C 37 °F /  2.8 °C 29.81in /  1009.4hPa NW 3.5mph /  5.6km/h 10mph /  16.1km/h 96% 0.04in /  1.02mm 47 W/m2
08:44 38.1 °F /  3.4 °C 37 °F /  2.8 °C 29.81in /  1009.4hPa NW 2.6mph /  4.2km/h 10mph /  16.1km/h 96% 0.05in /  1.27mm 56 W/m2
08:49 38.2 °F /  3.4 °C 37.1 °F /  2.8 °C 29.81in /  1009.4hPa NNW 1.4mph /  2.3km/h 10mph /  16.1km/h 96% 0.05in /  1.27mm 54 W/m2
08:54 38.3 °F /  3.5 °C 37.3 °F /  2.9 °C 29.80in /  1009hPa North 2.9mph /  4.7km/h 10mph /  16.1km/h 96% 0.05in /  1.27mm 67 W/m2
08:59 38.5 °F /  3.6 °C 37.5 °F /  3.1 °C 29.80in /  1009hPa NNW 2.3mph /  3.7km/h 10mph /  16.1km/h 96% 0.05in /  1.27mm 58 W/m2
09:04 38.7 °F /  3.7 °C 37.6 °F /  3.1 °C 29.79in /  1008.7hPa NNW 1.2mph /  1.9km/h 10mph /  16.1km/h 96% 0.05in /  1.27mm 63 W/m2
09:09 38.8 °F /  3.8 °C 37.8 °F /  3.2 °C 29.79in /  1008.7hPa NNW 1mph /  1.6km/h 6mph /  9.7km/h 96% 0.02in /  0.51mm 72 W/m2
09:14 39 °F /  3.9 °C 38 °F /  3.3 °C 29.79in /  1008.7hPa NNW 1.8mph /  2.9km/h 6mph /  9.7km/h 96% 0.02in /  0.51mm 72 W/m2
09:19 39.3 °F /  4.1 °C 38.2 °F /  3.4 °C 29.79in /  1008.7hPa NNW 0.8mph /  1.3km/h 6mph /  9.7km/h 96% 0.03in /  0.76mm 69 W/m2
09:24 39.5 °F /  4.2 °C 38.4 °F /  3.6 °C 29.79in /  1008.7hPa NNW 2.6mph /  4.2km/h 7mph /  11.3km/h 96% 0.03in /  0.76mm 63 W/m2
09:29 39.6 °F /  4.2 °C 38.5 °F /  3.6 °C 29.79in /  1008.7hPa NW 2.2mph /  3.5km/h 7mph /  11.3km/h 96% 0.03in /  0.76mm 56 W/m2
09:34 39.7 °F /  4.3 °C 38.6 °F /  3.7 °C 29.79in /  1008.7hPa NNW 0.5mph /  0.8km/h 7mph /  11.3km/h 96% 0.03in /  0.76mm 56 W/m2
09:39 39.8 °F /  4.3 °C 38.8 °F /  3.8 °C 29.79in /  1008.7hPa NW 2.6mph /  4.2km/h 9mph /  14.5km/h 96% 0.04in /  1.02mm 62 W/m2
09:44 39.9 °F /  4.4 °C 38.9 °F /  3.8 °C 29.79in /  1008.7hPa WNW 3mph /  4.8km/h 10mph /  16.1km/h 96% 0.04in /  1.02mm 62 W/m2
09:49 40 °F /  4.4 °C 39 °F /  3.9 °C 29.79in /  1008.7hPa WNW 2.3mph /  3.7km/h 10mph /  16.1km/h 96% 0.04in /  1.02mm 67 W/m2
09:54 40.1 °F /  4.5 °C 39.1 °F /  3.9 °C 29.79in /  1008.7hPa WNW 2.6mph /  4.2km/h 10mph /  16.1km/h 96% 0.05in /  1.27mm 79 W/m2
09:59 40.2 °F /  4.6 °C 39.1 °F /  3.9 °C 29.79in /  1008.7hPa NW 2.2mph /  3.5km/h 10mph /  16.1km/h 96% 0.05in /  1.27mm 120 W/m2
10:04 40.4 °F /  4.7 °C 39.4 °F /  4.1 °C 29.79in /  1008.7hPa NW 2.1mph /  3.4km/h 10mph /  16.1km/h 96% 0.05in /  1.27mm 128 W/m2
10:09 40.6 °F /  4.8 °C 39.5 °F /  4.2 °C 29.79in /  1008.7hPa WNW 1.1mph /  1.8km/h 7mph /  11.3km/h 96% 0.05in /  1.27mm 91 W/m2
10:14 40.7 °F /  4.8 °C 39.7 °F /  4.3 °C 29.80in /  1009hPa WNW 1.8mph /  2.9km/h 8mph /  12.9km/h 96% 0.05in /  1.27mm 88 W/m2
10:19 40.9 °F /  4.9 °C 39.8 °F /  4.3 °C 29.80in /  1009hPa West 1.5mph /  2.4km/h 9mph /  14.5km/h 96% 0.05in /  1.27mm 125 W/m2
10:24 41 °F /  5 °C 40.1 °F /  4.5 °C 29.80in /  1009hPa West 0.8mph /  1.3km/h 9mph /  14.5km/h 96.8% 0.05in /  1.27mm 149 W/m2
10:29 41.2 °F /  5.1 °C 40.2 °F /  4.6 °C 29.80in /  1009hPa WNW 1.8mph /  2.9km/h 10mph /  16.1km/h 96% 0.06in /  1.52mm 125 W/m2
10:34 41.4 °F /  5.2 °C 40.3 °F /  4.6 °C 29.79in /  1008.7hPa WNW 3.3mph /  5.3km/h 10mph /  16.1km/h 96% 0.06in /  1.52mm 139 W/m2
10:39 41.5 °F /  5.3 °C 40.5 °F /  4.7 °C 29.79in /  1008.7hPa WNW 2.5mph /  4km/h 10mph /  16.1km/h 96% 0.04in /  1.02mm 202 W/m2
10:44 41.7 °F /  5.4 °C 40.7 °F /  4.8 °C 29.79in /  1008.7hPa WNW 2.7mph /  4.3km/h 11mph /  17.7km/h 96% 0.05in /  1.27mm 211 W/m2
10:49 42 °F /  5.6 °C 41 °F /  5 °C 29.79in /  1008.7hPa WNW 2.7mph /  4.3km/h 11mph /  17.7km/h 96.1% 0.05in /  1.27mm 195 W/m2
10:54 42.3 °F /  5.7 °C 41.4 °F /  5.2 °C 29.79in /  1008.7hPa WNW 3.4mph /  5.5km/h 12mph /  19.3km/h 96.9% 0.05in /  1.27mm 158 W/m2
10:59 42.3 °F /  5.7 °C 41.3 °F /  5.2 °C 29.79in /  1008.7hPa WNW 3.4mph /  5.5km/h 12mph /  19.3km/h 96.3% 0.05in /  1.27mm 130 W/m2
11:04 42.2 °F /  5.7 °C 41.1 °F /  5.1 °C 29.78in /  1008.4hPa West 1.7mph /  2.7km/h 12mph /  19.3km/h 96% 0.05in /  1.27mm 130 W/m2
11:09 42.2 °F /  5.7 °C 41.1 °F /  5.1 °C 29.78in /  1008.4hPa WNW 0.9mph /  1.4km/h 6mph /  9.7km/h 96% 0.03in /  0.76mm 111 W/m2
11:14 42.3 °F /  5.7 °C 41.2 °F /  5.1 °C 29.78in /  1008.4hPa WNW 2.3mph /  3.7km/h 12mph /  19.3km/h 96% 0.03in /  0.76mm 114 W/m2
11:19 42.3 °F /  5.7 °C 41.3 °F /  5.2 °C 29.78in /  1008.4hPa WNW 3.7mph /  6km/h 13mph /  20.9km/h 96% 0.03in /  0.76mm 160 W/m2
11:24 42.4 °F /  5.8 °C 41.4 °F /  5.2 °C 29.77in /  1008hPa WNW 3.3mph /  5.3km/h 13mph /  20.9km/h 96% 0.03in /  0.76mm 195 W/m2
11:29 42.7 °F /  5.9 °C 41.7 °F /  5.4 °C 29.77in /  1008hPa WNW 0.9mph /  1.4km/h 13mph /  20.9km/h 96.3% 0.03in /  0.76mm 206 W/m2
11:34 43.1 °F /  6.2 °C 42.2 °F /  5.7 °C 29.77in /  1008hPa WNW 2.5mph /  4km/h 13mph /  20.9km/h 96.4% 0.03in /  0.76mm 214 W/m2
11:39 43.4 °F /  6.3 °C 42.6 °F /  5.9 °C 29.77in /  1008hPa West 2.2mph /  3.5km/h 11mph /  17.7km/h 96.9% 0.01in /  0.25mm 241 W/m2
11:44 43.7 °F /  6.5 °C 42.9 °F /  6.1 °C 29.77in /  1008hPa West 1.3mph /  2.1km/h 11mph /  17.7km/h 97% 0.01in /  0.25mm 246 W/m2
11:49 44 °F /  6.7 °C 42.9 °F /  6.1 °C 29.77in /  1008hPa WNW 2.4mph /  3.9km/h 11mph /  17.7km/h 96.2% 0.01in /  0.25mm 209 W/m2
11:54 43.9 °F /  6.6 °C 42.9 °F /  6.1 °C 29.76in /  1007.7hPa WNW 1.7mph /  2.7km/h 11mph /  17.7km/h 96% 0.01in /  0.25mm 186 W/m2
11:59 44.1 °F /  6.7 °C 43.2 °F /  6.2 °C 29.76in /  1007.7hPa WNW 4.6mph /  7.4km/h 12mph /  19.3km/h 96.8% 0.01in /  0.25mm 241 W/m2
12:00 44 °F /  6.7 °C 42.9 °F /  6.1 °C 29.76in /  1007.7hPa WNW 3mph /  4.8km/h 12mph /  19.3km/h 96% 0.01in /  0.25mm 241 W/m2
12:09 44.5 °F /  6.9 °C 43.5 °F /  6.4 °C 29.75in /  1007.3hPa West 1.7mph /  2.7km/h 7mph /  11.3km/h 96.4% 0.00in /  0mm 237 W/m2
12:14 44.7 °F /  7.1 °C 43.9 °F /  6.6 °C 29.76in /  1007.7hPa West 2.5mph /  4km/h 10mph /  16.1km/h 97% 0.00in /  0mm 223 W/m2
12:19 44.7 °F /  7.1 °C 43.9 °F /  6.6 °C 29.76in /  1007.7hPa West 1.8mph /  2.9km/h 10mph /  16.1km/h 97% 0.00in /  0mm 232 W/m2
12:24 44.8 °F /  7.1 °C 43.8 °F /  6.6 °C 29.76in /  1007.7hPa West 1.2mph /  1.9km/h 10mph /  16.1km/h 96.4% 0.00in /  0mm 214 W/m2
12:29 44.7 °F /  7.1 °C 43.7 °F /  6.5 °C 29.76in /  1007.7hPa West 2.8mph /  4.5km/h 12mph /  19.3km/h 96% 0.00in /  0mm 188 W/m2
12:34 44.5 °F /  6.9 °C 43.4 °F /  6.3 °C 29.76in /  1007.7hPa WNW 3.9mph /  6.3km/h 12mph /  19.3km/h 96% 0.00in /  0mm 185 W/m2
12:39 44.1 °F /  6.7 °C 42.9 °F /  6.1 °C 29.76in /  1007.7hPa WNW 4.8mph /  7.7km/h 13mph /  20.9km/h 95.6% 0.00in /  0mm 178 W/m2
12:44 43.8 °F /  6.6 °C 42.5 °F /  5.8 °C 29.76in /  1007.7hPa WNW 2.3mph /  3.7km/h 13mph /  20.9km/h 95% 0.00in /  0mm 176 W/m2
12:49 43.9 °F /  6.6 °C 42.6 °F /  5.9 °C 29.76in /  1007.7hPa NW 2.4mph /  3.9km/h 13mph /  20.9km/h 94.8% 0.00in /  0mm 176 W/m2
12:54 44 °F /  6.7 °C 42.4 °F /  5.8 °C 29.76in /  1007.7hPa NW 2.2mph /  3.5km/h 13mph /  20.9km/h 94% 0.00in /  0mm 178 W/m2
12:59 44.2 °F /  6.8 °C 42.6 °F /  5.9 °C 29.76in /  1007.7hPa NW 1mph /  1.6km/h 13mph /  20.9km/h 94% 0.00in /  0mm 202 W/m2
13:04 44.4 °F /  6.9 °C 42.8 °F /  6 °C 29.76in /  1007.7hPa NW 1.3mph /  2.1km/h 6mph /  9.7km/h 94% 0.00in /  0mm 169 W/m2
13:09 44.6 °F /  7 °C 42.7 °F /  5.9 °C 29.76in /  1007.7hPa West 2.4mph /  3.9km/h 7mph /  11.3km/h 93.1% 0.00in /  0mm 174 W/m2
13:14 44.6 °F /  7 °C 42.5 °F /  5.8 °C 29.76in /  1007.7hPa WNW 0.7mph /  1.1km/h 7mph /  11.3km/h 92.3% 0.00in /  0mm 225 W/m2
13:19 44.8 °F /  7.1 °C 42.6 °F /  5.9 °C 29.76in /  1007.7hPa NW 1.6mph /  2.6km/h 7mph /  11.3km/h 92% 0.00in /  0mm 301 W/m2
13:24 45.1 °F /  7.3 °C 42.9 °F /  6.1 °C 29.76in /  1007.7hPa WNW 0.7mph /  1.1km/h 7mph /  11.3km/h 91.8% 0.00in /  0mm 193 W/m2
13:29 45.2 °F /  7.3 °C 42.8 °F /  6 °C 29.76in /  1007.7hPa West 0.5mph /  0.8km/h 7mph /  11.3km/h 91% 0.00in /  0mm 193 W/m2
13:34 45.4 °F /  7.4 °C 42.7 °F /  5.9 °C 29.76in /  1007.7hPa WNW 1.1mph /  1.8km/h 7mph /  11.3km/h 90.2% 0.00in /  0mm 209 W/m2
13:39 45.7 °F /  7.6 °C 42.9 °F /  6.1 °C 29.76in /  1007.7hPa WNW 0.6mph /  1km/h 4mph /  6.4km/h 90% 0.00in /  0mm 206 W/m2
13:44 46.1 °F /  7.8 °C 43.2 °F /  6.2 °C 29.76in /  1007.7hPa WNW 1.4mph /  2.3km/h 6mph /  9.7km/h 89.8% 0.00in /  0mm 221 W/m2
13:49 46.5 °F /  8.1 °C 43.3 °F /  6.3 °C 29.77in /  1008hPa WNW 5.1mph /  8.2km/h 16mph /  25.7km/h 88.6% 0.00in /  0mm 221 W/m2
13:54 46.8 °F /  8.2 °C 42.8 °F /  6 °C 29.77in /  1008hPa NW 6.1mph /  9.8km/h 16mph /  25.7km/h 85.9% 0.00in /  0mm 169 W/m2
13:59 47 °F /  8.3 °C 42.5 °F /  5.8 °C 29.77in /  1008hPa WNW 6mph /  9.7km/h 16mph /  25.7km/h 84.5% 0.00in /  0mm 141 W/m2
14:04 47 °F /  8.3 °C 42.1 °F /  5.6 °C 29.77in /  1008hPa NW 4.9mph /  7.9km/h 16mph /  25.7km/h 83% 0.00in /  0mm 141 W/m2
14:09 47 °F /  8.3 °C 42.1 °F /  5.6 °C 29.77in /  1008hPa NW 4mph /  6.4km/h 18mph /  29km/h 83% 0.00in /  0mm 127 W/m2
14:14 47.1 °F /  8.4 °C 41.9 °F /  5.5 °C 29.77in /  1008hPa WNW 7.9mph /  12.7km/h 18mph /  29km/h 82% 0.00in /  0mm 130 W/m2
14:19 47.1 °F /  8.4 °C 41.4 °F /  5.2 °C 29.77in /  1008hPa WNW 6.4mph /  10.3km/h 18mph /  29km/h 80.5% 0.00in /  0mm 74 W/m2
14:24 47.2 °F /  8.4 °C 41.4 °F /  5.2 °C 29.77in /  1008hPa WNW 9mph /  14.5km/h 18mph /  29km/h 80.3% 0.00in /  0mm 72 W/m2
14:29 47 °F /  8.3 °C 41 °F /  5 °C 29.77in /  1008hPa WNW 9.7mph /  15.6km/h 19mph /  30.6km/h 79.4% 0.00in /  0mm 91 W/m2
14:34 47 °F /  8.3 °C 40.8 °F /  4.9 °C 29.77in /  1008hPa WNW 12.1mph /  19.5km/h 23mph /  37km/h 79% 0.00in /  0mm 81 W/m2
14:39 47 °F /  8.3 °C 40.8 °F /  4.9 °C 29.78in /  1008.4hPa West 8.4mph /  13.5km/h 23mph /  37km/h 79% 0.00in /  0mm 58 W/m2
14:44 46.9 °F /  8.3 °C 40.5 °F /  4.7 °C 29.78in /  1008.4hPa WNW 7.9mph /  12.7km/h 23mph /  37km/h 78% 0.00in /  0mm 37 W/m2
14:49 46.8 °F /  8.2 °C 40.3 °F /  4.6 °C 29.78in /  1008.4hPa WNW 8.2mph /  13.2km/h 23mph /  37km/h 78.1% 0.00in /  0mm 25 W/m2
14:54 46.5 °F /  8.1 °C 40.1 °F /  4.5 °C 29.78in /  1008.4hPa WNW 10.4mph /  16.7km/h 23mph /  37km/h 78.2% 0.00in /  0mm 32 W/m2
14:59 46.3 °F /  7.9 °C 39.8 °F /  4.3 °C 29.78in /  1008.4hPa WNW 9.9mph /  15.9km/h 23mph /  37km/h 78% 0.00in /  0mm 37 W/m2
15:04 46.2 °F /  7.9 °C 39.7 °F /  4.3 °C 29.79in /  1008.7hPa WNW 6.8mph /  10.9km/h 23mph /  37km/h 78% 0.00in /  0mm 32 W/m2
15:09 46.1 °F /  7.8 °C 39.6 °F /  4.2 °C 29.79in /  1008.7hPa WNW 7.7mph /  12.4km/h 16mph /  25.7km/h 78% 0.00in /  0mm 28 W/m2
15:14 45.9 °F /  7.7 °C 39.5 °F /  4.2 °C 29.79in /  1008.7hPa WNW 4.2mph /  6.8km/h 16mph /  25.7km/h 78% 0.00in /  0mm 26 W/m2
15:19 45.8 °F /  7.7 °C 39.5 °F /  4.2 °C 29.79in /  1008.7hPa NW 3.9mph /  6.3km/h 16mph /  25.7km/h 78.3% 0.00in /  0mm 23 W/m2
15:24 45.7 °F /  7.6 °C 39.5 °F /  4.2 °C 29.79in /  1008.7hPa WNW 3.2mph /  5.1km/h 16mph /  25.7km/h 79% 0.00in /  0mm 23 W/m2
15:29 45.5 °F /  7.5 °C 39 °F /  3.9 °C 29.80in /  1009hPa WNW 9.1mph /  14.6km/h 21mph /  33.8km/h 78% 0.00in /  0mm 19 W/m2
15:34 45.4 °F /  7.4 °C 38.7 °F /  3.7 °C 29.80in /  1009hPa WNW 4.7mph /  7.6km/h 21mph /  33.8km/h 77.2% 0.00in /  0mm 26 W/m2
15:39 45.3 °F /  7.4 °C 38.9 °F /  3.8 °C 29.80in /  1009hPa WNW 5.3mph /  8.5km/h 19mph /  30.6km/h 78% 0.00in /  0mm 32 W/m2
15:44 45.3 °F /  7.4 °C 38.9 °F /  3.8 °C 29.80in /  1009hPa WNW 4.3mph /  6.9km/h 19mph /  30.6km/h 78% 0.00in /  0mm 35 W/m2
15:49 45.3 °F /  7.4 °C 38.9 °F /  3.8 °C 29.80in /  1009hPa WNW 2.9mph /  4.7km/h 19mph /  30.6km/h 78% 0.00in /  0mm 32 W/m2
15:54 45.3 °F /  7.4 °C 38.7 °F /  3.7 °C 29.80in /  1009hPa West 6mph /  9.7km/h 19mph /  30.6km/h 77.6% 0.00in /  0mm 26 W/m2
15:59 45.3 °F /  7.4 °C 38.5 °F /  3.6 °C 29.80in /  1009hPa WNW 6mph /  9.7km/h 19mph /  30.6km/h 77% 0.00in /  0mm 23 W/m2
16:09 45.3 °F /  7.4 °C 38.5 °F /  3.6 °C 29.80in /  1009hPa WNW 3.7mph /  6km/h 12mph /  19.3km/h 77% 0.00in /  0mm 12 W/m2
16:14 45.2 °F /  7.3 °C 38.5 °F /  3.6 °C 29.81in /  1009.4hPa NW 3.5mph /  5.6km/h 14mph /  22.5km/h 77.1% 0.00in /  0mm 11 W/m2
16:19 45.2 °F /  7.3 °C 38.5 °F /  3.6 °C 29.82in /  1009.7hPa WNW 7.7mph /  12.4km/h 14mph /  22.5km/h 77.2% 0.00in /  0mm 5 W/m2
16:24 45.2 °F /  7.3 °C 38.4 °F /  3.6 °C 29.82in /  1009.7hPa WNW 2.5mph /  4km/h 14mph /  22.5km/h 77% 0.00in /  0mm 0 W/m2
16:29 45.1 °F /  7.3 °C 38.4 °F /  3.6 °C 29.82in /  1009.7hPa WNW 4.6mph /  7.4km/h 14mph /  22.5km/h 77% 0.00in /  0mm 0 W/m2
16:34 45.1 °F /  7.3 °C 38.3 °F /  3.5 °C 29.82in /  1009.7hPa WNW 7.6mph /  12.2km/h 14mph /  22.5km/h 76.9% 0.00in /  0mm 0 W/m2
16:39 45 °F /  7.2 °C 37.9 °F /  3.3 °C 29.82in /  1009.7hPa WNW 2.4mph /  3.9km/h 14mph /  22.5km/h 76% 0.00in /  0mm 0 W/m2
16:44 44.9 °F /  7.2 °C 38.1 °F /  3.4 °C 29.83in /  1010hPa WNW 2.5mph /  4km/h 14mph /  22.5km/h 76.9% 0.00in /  0mm 0 W/m2
16:49 44.7 °F /  7.1 °C 38 °F /  3.3 °C 29.83in /  1010hPa NW 0.7mph /  1.1km/h 14mph /  22.5km/h 77% 0.00in /  0mm 0 W/m2
16:54 44.6 °F /  7 °C 37.8 °F /  3.2 °C 29.83in /  1010hPa West 0.8mph /  1.3km/h 14mph /  22.5km/h 77% 0.00in /  0mm 0 W/m2
16:59 44.4 °F /  6.9 °C 37.9 °F /  3.3 °C 29.83in /  1010hPa West 1.2mph /  1.9km/h 14mph /  22.5km/h 77.8% 0.00in /  0mm 0 W/m2
17:04 44.2 °F /  6.8 °C 37.8 °F /  3.2 °C 29.83in /  1010hPa West 0.6mph /  1km/h 14mph /  22.5km/h 78% 0.00in /  0mm 0 W/m2
17:09 44 °F /  6.7 °C 37.6 °F /  3.1 °C 29.83in /  1010hPa WSW 0.3mph /  0.5km/h 5mph /  8km/h 78% 0.00in /  0mm 0 W/m2
17:14 43.8 °F /  6.6 °C 37.5 °F /  3.1 °C 29.83in /  1010hPa WNW 1.5mph /  2.4km/h 12mph /  19.3km/h 78.2% 0.00in /  0mm 0 W/m2
17:19 43.6 °F /  6.4 °C 37.5 °F /  3.1 °C 29.83in /  1010hPa WNW 0.8mph /  1.3km/h 12mph /  19.3km/h 79% 0.00in /  0mm 0 W/m2
17:24 43.4 °F /  6.3 °C 37.5 °F /  3.1 °C 29.83in /  1010hPa WNW 0.2mph /  0.3km/h 12mph /  19.3km/h 79.5% 0.00in /  0mm 0 W/m2
17:29 43.2 °F /  6.2 °C 37.5 °F /  3.1 °C 29.84in /  1010.4hPa Calm   12mph /  19.3km/h 80% 0.00in /  0mm 0 W/m2
17:34 43.1 °F /  6.2 °C 37.4 °F /  3 °C 29.84in /  1010.4hPa Calm   12mph /  19.3km/h 80% 0.00in /  0mm 0 W/m2
17:39 42.9 °F /  6.1 °C 37.5 °F /  3.1 °C 29.84in /  1010.4hPa WNW 0.4mph /  0.6km/h 10mph /  16.1km/h 80.9% 0.00in /  0mm 0 W/m2
17:44 42.8 °F /  6 °C 37.4 °F /  3 °C 29.84in /  1010.4hPa WNW 0.2mph /  0.3km/h 10mph /  16.1km/h 81.1% 0.00in /  0mm 0 W/m2
17:49 42.7 °F /  5.9 °C 37.6 °F /  3.1 °C 29.84in /  1010.4hPa WNW 0.3mph /  0.5km/h 10mph /  16.1km/h 82% 0.00in /  0mm 0 W/m2
17:54 42.7 °F /  5.9 °C 37.6 °F /  3.1 °C 29.84in /  1010.4hPa West 0.6mph /  1km/h 10mph /  16.1km/h 82% 0.00in /  0mm 0 W/m2
17:59 42.7 °F /  5.9 °C 37.6 °F /  3.1 °C 29.84in /  1010.4hPa West 0.1mph /  0.2km/h 10mph /  16.1km/h 82% 0.00in /  0mm 0 W/m2
18:04 42.6 °F /  5.9 °C 37.5 °F /  3.1 °C 29.85in /  1010.7hPa Calm   10mph /  16.1km/h 82% 0.00in /  0mm 0 W/m2
18:09 42.5 °F /  5.8 °C 37.5 °F /  3.1 °C 29.85in /  1010.7hPa West 0.3mph /  0.5km/h 4mph /  6.4km/h 82.2% 0.00in /  0mm 0 W/m2
18:14 42.5 °F /  5.8 °C 37.4 °F /  3 °C 29.85in /  1010.7hPa Calm   4mph /  6.4km/h 82% 0.00in /  0mm 0 W/m2
18:19 42.4 °F /  5.8 °C 37.6 °F /  3.1 °C 29.85in /  1010.7hPa Calm   4mph /  6.4km/h 82.9% 0.00in /  0mm 0 W/m2
18:24 42.2 °F /  5.7 °C 37.5 °F /  3.1 °C 29.85in /  1010.7hPa Calm   4mph /  6.4km/h 83% 0.00in /  0mm 0 W/m2
18:29 42.1 °F /  5.6 °C 37.3 °F /  2.9 °C 29.84in /  1010.4hPa Calm   4mph /  6.4km/h 83% 0.00in /  0mm 0 W/m2
18:34 42 °F /  5.6 °C 37.2 °F /  2.9 °C 29.84in /  1010.4hPa Calm   4mph /  6.4km/h 83% 0.00in /  0mm 0 W/m2
18:39 41.9 °F /  5.5 °C 37.1 °F /  2.8 °C 29.84in /  1010.4hPa Calm     83% 0.00in /  0mm 0 W/m2
18:44 41.7 °F /  5.4 °C 36.9 °F /  2.7 °C 29.84in /  1010.4hPa Calm     83% 0.00in /  0mm 0 W/m2
18:49 41.6 °F /  5.3 °C 37 °F /  2.8 °C 29.84in /  1010.4hPa West 0.2mph /  0.3km/h 3mph /  4.8km/h 83.6% 0.00in /  0mm 0 W/m2
18:54 41.5 °F /  5.3 °C 37 °F /  2.8 °C 29.84in /  1010.4hPa Calm   3mph /  4.8km/h 84% 0.00in /  0mm 0 W/m2
18:59 41.4 °F /  5.2 °C 37.1 °F /  2.8 °C 29.83in /  1010hPa Calm   3mph /  4.8km/h 84.7% 0.00in /  0mm 0 W/m2
19:04 41.3 °F /  5.2 °C 37.1 °F /  2.8 °C 29.83in /  1010hPa Calm   3mph /  4.8km/h 85% 0.00in /  0mm 0 W/m2
19:09 41.2 °F /  5.1 °C 37 °F /  2.8 °C 29.84in /  1010.4hPa Calm     85% 0.00in /  0mm 0 W/m2
19:14 41.1 °F /  5.1 °C 36.9 °F /  2.7 °C 29.84in /  1010.4hPa Calm     85% 0.00in /  0mm 0 W/m2
19:19 40.9 °F /  4.9 °C 36.8 °F /  2.7 °C 29.84in /  1010.4hPa Calm     85% 0.00in /  0mm 0 W/m2
19:24 40.8 °F /  4.9 °C 36.6 °F /  2.6 °C 29.84in /  1010.4hPa Calm     85% 0.00in /  0mm 0 W/m2
19:29 40.6 °F /  4.8 °C 36.5 °F /  2.5 °C 29.84in /  1010.4hPa Calm     85.2% 0.00in /  0mm 0 W/m2
19:34 40.5 °F /  4.7 °C 36.6 °F /  2.6 °C 29.84in /  1010.4hPa Calm     86% 0.00in /  0mm 0 W/m2
19:39 40.4 °F /  4.7 °C 36.5 °F /  2.5 °C 29.83in /  1010hPa Calm     86% 0.00in /  0mm 0 W/m2
19:44 40.2 °F /  4.6 °C 36.6 °F /  2.6 °C 29.83in /  1010hPa Calm     86.7% 0.00in /  0mm 0 W/m2
19:49 40.1 °F /  4.5 °C 36.6 °F /  2.6 °C 29.83in /  1010hPa Calm     87% 0.00in /  0mm 0 W/m2
19:54 40 °F /  4.4 °C 36.5 °F /  2.5 °C 29.83in /  1010hPa Calm     87% 0.00in /  0mm 0 W/m2
19:59 40 °F /  4.4 °C 36.4 °F /  2.4 °C 29.83in /  1010hPa Calm     87% 0.00in /  0mm 0 W/m2
20:00 39.9 °F /  4.4 °C 36.3 °F /  2.4 °C 29.83in /  1010hPa Calm     87% 0.00in /  0mm 0 W/m2
20:09 39.8 °F /  4.3 °C 36.2 °F /  2.3 °C 29.83in /  1010hPa Calm     87% 0.00in /  0mm 0 W/m2
20:14 39.7 °F /  4.3 °C 36.1 °F /  2.3 °C 29.83in /  1010hPa Calm     87% 0.00in /  0mm 0 W/m2
20:19 39.6 °F /  4.2 °C 36.1 °F /  2.3 °C 29.83in /  1010hPa Calm     87.1% 0.00in /  0mm 0 W/m2
20:21 39.5 °F /  4.2 °C 36.3 °F /  2.4 °C 29.83in /  1010hPa Calm     88% 0.00in /  0mm 0 W/m2
20:30 39.5 °F /  4.2 °C 36.3 °F /  2.4 °C 29.83in /  1010hPa Calm     88% 0.00in /  0mm 0 W/m2
21:00 39.1 °F /  3.9 °C 36.1 °F /  2.3 °C 29.83in /  1010hPa Calm     89% 0.00in /  0mm 0 W/m2
21:30 38.2 °F /  3.4 °C 35.3 °F /  1.8 °C 29.83in /  1010hPa Calm     89% 0.00in /  0mm 0 W/m2
22:00 37.9 °F /  3.3 °C 35.2 °F /  1.8 °C 29.83in /  1010hPa Calm     90% 0.00in /  0mm 0 W/m2
22:30 38 °F /  3.3 °C 35.6 °F /  2 °C 29.83in /  1010hPa Calm     91% 0.00in /  0mm 0 W/m2
23:04 37.9 °F /  3.3 °C 35.3 °F /  1.8 °C 29.84in /  1010.4hPa Calm     90.1% 0.00in /  0mm 0 W/m2
23:09 38 °F /  3.3 °C 35.4 °F /  1.9 °C 29.84in /  1010.4hPa Calm     90.4% 0.00in /  0mm 0 W/m2
23:14 38 °F /  3.3 °C 35.3 °F /  1.8 °C 29.83in /  1010hPa Calm     90% 0.00in /  0mm 0 W/m2
23:19 38 °F /  3.3 °C 35.3 °F /  1.8 °C 29.83in /  1010hPa Calm     90% 0.00in /  0mm 0 W/m2
23:24 37.9 °F /  3.3 °C 35.2 °F /  1.8 °C 29.84in /  1010.4hPa Calm     90% 0.00in /  0mm 0 W/m2
23:29 37.9 °F /  3.3 °C 35.2 °F /  1.8 °C 29.84in /  1010.4hPa Calm     90% 0.00in /  0mm 0 W/m2
23:34 37.9 °F /  3.3 °C 35.2 °F /  1.8 °C 29.83in /  1010hPa Calm     90% 0.00in /  0mm 0 W/m2
23:39 37.8 °F /  3.2 °C 35.1 °F /  1.7 °C 29.83in /  1010hPa Calm     90% 0.00in /  0mm 0 W/m2
23:44 37.8 °F /  3.2 °C 35.1 °F /  1.7 °C 29.83in /  1010hPa Calm     90% 0.00in /  0mm 0 W/m2
23:49 37.7 °F /  3.2 °C 35 °F /  1.7 °C 29.83in /  1010hPa Calm     90% 0.00in /  0mm 0 W/m2
23:54 37.6 °F /  3.1 °C 34.6 °F /  1.4 °C 29.83in /  1010hPa West 0.2mph /  0.3km/h 3mph /  4.8km/h 89% 0.00in /  0mm 0 W/m2
23:59 37.4 °F /  3 °C 34.5 °F /  1.4 °C 29.83in /  1010hPa Calm   3mph /  4.8km/h 89% 0.00in /  0mm 0 W/m2
Hartford County Weather
Compliments of Weather Underground - 2 mb